sensor_id;sensor_type;location;lat;lon;timestamp;temperature;humidity
77305;DHT22;66364;52.622;7.746;2023-04-24T00:00:38;11.10;99.90
77305;DHT22;66364;52.622;7.746;2023-04-24T00:02:43;11.10;99.90
77305;DHT22;66364;52.622;7.746;2023-04-24T00:04:55;10.90;99.90
77305;DHT22;66364;52.622;7.746;2023-04-24T00:06:57;10.90;99.90
77305;DHT22;66364;52.622;7.746;2023-04-24T00:09:01;10.90;99.90
77305;DHT22;66364;52.622;7.746;2023-04-24T00:11:01;11.00;99.90
77305;DHT22;66364;52.622;7.746;2023-04-24T00:13:11;11.00;99.90
77305;DHT22;66364;52.622;7.746;2023-04-24T00:15:12;11.00;99.90
77305;DHT22;66364;52.622;7.746;2023-04-24T00:17:13;11.00;99.90
77305;DHT22;66364;52.622;7.746;2023-04-24T00:19:14;10.90;99.90
77305;DHT22;66364;52.622;7.746;2023-04-24T00:21:15;10.90;99.90
77305;DHT22;66364;52.622;7.746;2023-04-24T00:23:16;11.00;99.90
77305;DHT22;66364;52.622;7.746;2023-04-24T00:25:17;10.90;99.90
77305;DHT22;66364;52.622;7.746;2023-04-24T00:27:18;10.80;99.90
77305;DHT22;66364;52.622;7.746;2023-04-24T00:29:20;10.70;99.90
77305;DHT22;66364;52.622;7.746;2023-04-24T00:31:27;10.80;99.90
77305;DHT22;66364;52.622;7.746;2023-04-24T00:33:28;10.90;99.90
77305;DHT22;66364;52.622;7.746;2023-04-24T00:35:28;10.80;99.90
77305;DHT22;66364;52.622;7.746;2023-04-24T00:37:29;11.00;99.90
77305;DHT22;66364;52.622;7.746;2023-04-24T00:39:31;10.90;99.90
77305;DHT22;66364;52.622;7.746;2023-04-24T00:41:35;10.90;99.90
77305;DHT22;66364;52.622;7.746;2023-04-24T00:43:37;10.90;99.90
77305;DHT22;66364;52.622;7.746;2023-04-24T00:45:38;10.80;99.90
77305;DHT22;66364;52.622;7.746;2023-04-24T00:47:40;10.70;99.90
77305;DHT22;66364;52.622;7.746;2023-04-24T00:49:42;10.90;99.90
77305;DHT22;66364;52.622;7.746;2023-04-24T00:51:43;10.70;99.90
77305;DHT22;66364;52.622;7.746;2023-04-24T00:53:44;10.80;99.90
77305;DHT22;66364;52.622;7.746;2023-04-24T00:55:45;10.70;99.90
77305;DHT22;66364;52.622;7.746;2023-04-24T00:57:46;11.00;99.90
77305;DHT22;66364;52.622;7.746;2023-04-24T00:59:48;10.70;99.90
77305;DHT22;66364;52.622;7.746;2023-04-24T01:01:49;11.00;99.90
77305;DHT22;66364;52.622;7.746;2023-04-24T01:03:51;10.60;99.90
77305;DHT22;66364;52.622;7.746;2023-04-24T01:05:54;10.70;99.90
77305;DHT22;66364;52.622;7.746;2023-04-24T01:07:56;10.70;99.90
77305;DHT22;66364;52.622;7.746;2023-04-24T01:09:57;10.60;99.90
77305;DHT22;66364;52.622;7.746;2023-04-24T01:11:58;10.60;99.90
77305;DHT22;66364;52.622;7.746;2023-04-24T01:14:00;10.60;99.90
77305;DHT22;66364;52.622;7.746;2023-04-24T01:16:01;10.60;99.90
77305;DHT22;66364;52.622;7.746;2023-04-24T01:18:03;10.60;99.90
77305;DHT22;66364;52.622;7.746;2023-04-24T01:20:05;10.60;99.90
77305;DHT22;66364;52.622;7.746;2023-04-24T01:22:14;10.70;99.90
77305;DHT22;66364;52.622;7.746;2023-04-24T01:24:15;10.50;99.90
77305;DHT22;66364;52.622;7.746;2023-04-24T01:26:17;10.70;99.90
77305;DHT22;66364;52.622;7.746;2023-04-24T01:28:19;10.70;99.90
77305;DHT22;66364;52.622;7.746;2023-04-24T01:30:20;10.90;99.90
77305;DHT22;66364;52.622;7.746;2023-04-24T01:32:21;10.70;99.90
77305;DHT22;66364;52.622;7.746;2023-04-24T01:34:22;10.60;99.90
77305;DHT22;66364;52.622;7.746;2023-04-24T01:38:45;10.60;99.90
77305;DHT22;66364;52.622;7.746;2023-04-24T01:40:46;10.50;99.90
77305;DHT22;66364;52.622;7.746;2023-04-24T01:42:48;10.60;99.90
77305;DHT22;66364;52.622;7.746;2023-04-24T01:44:49;10.60;99.90
77305;DHT22;66364;52.622;7.746;2023-04-24T01:47:10;10.70;99.90
77305;DHT22;66364;52.622;7.746;2023-04-24T01:49:11;10.70;99.90
77305;DHT22;66364;52.622;7.746;2023-04-24T01:51:12;10.60;99.90
77305;DHT22;66364;52.622;7.746;2023-04-24T01:53:13;10.50;99.90
77305;DHT22;66364;52.622;7.746;2023-04-24T01:55:16;10.50;99.90
77305;DHT22;66364;52.622;7.746;2023-04-24T01:57:17;10.40;99.90
77305;DHT22;66364;52.622;7.746;2023-04-24T01:59:19;10.50;99.90
77305;DHT22;66364;52.622;7.746;2023-04-24T02:01:23;10.50;99.90
77305;DHT22;66364;52.622;7.746;2023-04-24T02:03:26;10.50;99.90
77305;DHT22;66364;52.622;7.746;2023-04-24T02:05:27;10.50;99.90
77305;DHT22;66364;52.622;7.746;2023-04-24T02:07:28;10.50;99.90
77305;DHT22;66364;52.622;7.746;2023-04-24T02:09:29;10.40;99.90
77305;DHT22;66364;52.622;7.746;2023-04-24T02:11:30;10.30;99.90
77305;DHT22;66364;52.622;7.746;2023-04-24T02:13:31;10.40;99.90
77305;DHT22;66364;52.622;7.746;2023-04-24T02:15:33;10.50;99.90
77305;DHT22;66364;52.622;7.746;2023-04-24T02:17:34;10.30;99.90
77305;DHT22;66364;52.622;7.746;2023-04-24T02:19:34;10.40;99.90
77305;DHT22;66364;52.622;7.746;2023-04-24T02:21:35;10.50;99.90
77305;DHT22;66364;52.622;7.746;2023-04-24T02:23:37;10.60;99.90
77305;DHT22;66364;52.622;7.746;2023-04-24T02:25:37;10.30;99.90
77305;DHT22;66364;52.622;7.746;2023-04-24T02:27:38;10.40;99.90
77305;DHT22;66364;52.622;7.746;2023-04-24T02:29:39;10.40;99.90
77305;DHT22;66364;52.622;7.746;2023-04-24T02:31:41;10.40;99.90
77305;DHT22;66364;52.622;7.746;2023-04-24T02:33:42;10.40;99.90
77305;DHT22;66364;52.622;7.746;2023-04-24T02:35:43;10.30;99.90
77305;DHT22;66364;52.622;7.746;2023-04-24T02:37:43;10.30;99.90
77305;DHT22;66364;52.622;7.746;2023-04-24T02:39:44;10.50;99.90
77305;DHT22;66364;52.622;7.746;2023-04-24T02:41:45;10.40;99.90
77305;DHT22;66364;52.622;7.746;2023-04-24T02:43:47;10.50;99.90
77305;DHT22;66364;52.622;7.746;2023-04-24T02:45:48;10.60;99.90
77305;DHT22;66364;52.622;7.746;2023-04-24T02:47:49;10.50;99.90
77305;DHT22;66364;52.622;7.746;2023-04-24T02:49:52;10.60;99.90
77305;DHT22;66364;52.622;7.746;2023-04-24T02:51:53;10.50;99.90
77305;DHT22;66364;52.622;7.746;2023-04-24T02:53:54;10.80;99.90
77305;DHT22;66364;52.622;7.746;2023-04-24T02:55:56;10.60;99.90
77305;DHT22;66364;52.622;7.746;2023-04-24T02:57:57;10.60;99.90
77305;DHT22;66364;52.622;7.746;2023-04-24T02:59:58;10.60;99.90
77305;DHT22;66364;52.622;7.746;2023-04-24T03:01:59;10.50;99.90
77305;DHT22;66364;52.622;7.746;2023-04-24T03:04:00;10.60;99.90
77305;DHT22;66364;52.622;7.746;2023-04-24T03:06:02;10.50;99.90
77305;DHT22;66364;52.622;7.746;2023-04-24T03:08:03;10.50;99.90
77305;DHT22;66364;52.622;7.746;2023-04-24T03:10:09;10.60;99.90
77305;DHT22;66364;52.622;7.746;2023-04-24T03:12:10;10.40;99.90
77305;DHT22;66364;52.622;7.746;2023-04-24T03:14:11;10.50;99.90
77305;DHT22;66364;52.622;7.746;2023-04-24T03:16:12;10.80;99.90
77305;DHT22;66364;52.622;7.746;2023-04-24T03:18:13;10.40;99.90
77305;DHT22;66364;52.622;7.746;2023-04-24T03:20:15;10.50;99.90
77305;DHT22;66364;52.622;7.746;2023-04-24T03:22:16;10.60;99.90
77305;DHT22;66364;52.622;7.746;2023-04-24T03:24:17;10.90;99.90
77305;DHT22;66364;52.622;7.746;2023-04-24T03:26:18;10.60;99.90
77305;DHT22;66364;52.622;7.746;2023-04-24T03:28:19;10.50;99.90
77305;DHT22;66364;52.622;7.746;2023-04-24T03:30:20;10.50;99.90
77305;DHT22;66364;52.622;7.746;2023-04-24T03:32:24;10.50;99.90
77305;DHT22;66364;52.622;7.746;2023-04-24T03:34:24;10.20;99.90
77305;DHT22;66364;52.622;7.746;2023-04-24T03:36:25;10.40;99.90
77305;DHT22;66364;52.622;7.746;2023-04-24T03:38:26;10.50;99.90
77305;DHT22;66364;52.622;7.746;2023-04-24T03:40:27;10.40;99.90
77305;DHT22;66364;52.622;7.746;2023-04-24T03:42:28;10.40;99.90
77305;DHT22;66364;52.622;7.746;2023-04-24T03:44:29;10.50;99.90
77305;DHT22;66364;52.622;7.746;2023-04-24T03:46:30;10.50;99.90
77305;DHT22;66364;52.622;7.746;2023-04-24T03:48:31;10.40;99.90
77305;DHT22;66364;52.622;7.746;2023-04-24T03:50:35;10.50;99.90
77305;DHT22;66364;52.622;7.746;2023-04-24T03:52:36;10.30;99.90
77305;DHT22;66364;52.622;7.746;2023-04-24T03:54:37;10.50;99.90
77305;DHT22;66364;52.622;7.746;2023-04-24T03:56:38;10.30;99.90
77305;DHT22;66364;52.622;7.746;2023-04-24T03:58:39;10.30;99.90
77305;DHT22;66364;52.622;7.746;2023-04-24T04:00:40;10.20;99.90
77305;DHT22;66364;52.622;7.746;2023-04-24T04:02:41;10.20;99.90
77305;DHT22;66364;52.622;7.746;2023-04-24T04:04:42;10.20;99.90
77305;DHT22;66364;52.622;7.746;2023-04-24T04:06:43;10.20;99.90
77305;DHT22;66364;52.622;7.746;2023-04-24T04:08:44;10.50;99.90
77305;DHT22;66364;52.622;7.746;2023-04-24T04:10:45;10.20;99.90
77305;DHT22;66364;52.622;7.746;2023-04-24T04:12:45;10.20;99.90
77305;DHT22;66364;52.622;7.746;2023-04-24T04:14:46;10.20;99.90
77305;DHT22;66364;52.622;7.746;2023-04-24T04:16:49;10.10;99.90
77305;DHT22;66364;52.622;7.746;2023-04-24T04:18:54;10.10;99.90
77305;DHT22;66364;52.622;7.746;2023-04-24T04:20:55;10.00;99.90
77305;DHT22;66364;52.622;7.746;2023-04-24T04:22:57;10.10;99.90
77305;DHT22;66364;52.622;7.746;2023-04-24T04:24:58;10.00;99.90
77305;DHT22;66364;52.622;7.746;2023-04-24T04:26:59;10.00;99.90
77305;DHT22;66364;52.622;7.746;2023-04-24T04:29:00;10.00;99.90
77305;DHT22;66364;52.622;7.746;2023-04-24T04:31:01;10.20;99.90
77305;DHT22;66364;52.622;7.746;2023-04-24T04:33:02;10.10;99.90
77305;DHT22;66364;52.622;7.746;2023-04-24T04:35:04;10.10;99.90
77305;DHT22;66364;52.622;7.746;2023-04-24T04:37:05;10.00;99.90
77305;DHT22;66364;52.622;7.746;2023-04-24T04:39:06;10.00;99.90
77305;DHT22;66364;52.622;7.746;2023-04-24T04:41:07;10.10;99.90
77305;DHT22;66364;52.622;7.746;2023-04-24T04:43:08;10.00;99.90
77305;DHT22;66364;52.622;7.746;2023-04-24T04:45:11;10.20;99.90
77305;DHT22;66364;52.622;7.746;2023-04-24T04:47:20;9.90;99.90
77305;DHT22;66364;52.622;7.746;2023-04-24T04:49:22;10.10;99.90
77305;DHT22;66364;52.622;7.746;2023-04-24T04:51:24;10.10;99.90
77305;DHT22;66364;52.622;7.746;2023-04-24T04:53:25;10.00;99.90
77305;DHT22;66364;52.622;7.746;2023-04-24T04:55:26;10.20;99.90
77305;DHT22;66364;52.622;7.746;2023-04-24T04:57:27;10.00;99.90
77305;DHT22;66364;52.622;7.746;2023-04-24T04:59:29;10.20;99.90
77305;DHT22;66364;52.622;7.746;2023-04-24T05:01:29;9.90;99.90
77305;DHT22;66364;52.622;7.746;2023-04-24T05:03:30;10.00;99.90
77305;DHT22;66364;52.622;7.746;2023-04-24T05:05:31;10.00;99.90
77305;DHT22;66364;52.622;7.746;2023-04-24T05:07:33;10.00;99.90
77305;DHT22;66364;52.622;7.746;2023-04-24T05:09:34;10.00;99.90
77305;DHT22;66364;52.622;7.746;2023-04-24T05:11:35;10.00;99.90
77305;DHT22;66364;52.622;7.746;2023-04-24T05:13:37;10.20;99.90
77305;DHT22;66364;52.622;7.746;2023-04-24T05:15:38;10.10;99.90
77305;DHT22;66364;52.622;7.746;2023-04-24T05:17:39;10.10;99.90
77305;DHT22;66364;52.622;7.746;2023-04-24T05:19:40;10.00;99.90
77305;DHT22;66364;52.622;7.746;2023-04-24T05:21:43;10.10;99.90
77305;DHT22;66364;52.622;7.746;2023-04-24T05:23:44;10.10;99.90
77305;DHT22;66364;52.622;7.746;2023-04-24T05:25:44;9.90;99.90
77305;DHT22;66364;52.622;7.746;2023-04-24T05:27:47;10.00;99.90
77305;DHT22;66364;52.622;7.746;2023-04-24T05:29:48;9.90;99.90
77305;DHT22;66364;52.622;7.746;2023-04-24T05:31:49;10.20;99.90
77305;DHT22;66364;52.622;7.746;2023-04-24T05:33:53;9.90;99.90
77305;DHT22;66364;52.622;7.746;2023-04-24T05:35:56;10.20;99.90
77305;DHT22;66364;52.622;7.746;2023-04-24T05:37:57;10.20;99.90
77305;DHT22;66364;52.622;7.746;2023-04-24T05:39:58;10.00;99.90
77305;DHT22;66364;52.622;7.746;2023-04-24T05:42:02;10.10;99.90
77305;DHT22;66364;52.622;7.746;2023-04-24T05:44:04;10.00;99.90
77305;DHT22;66364;52.622;7.746;2023-04-24T05:46:05;10.10;99.90
77305;DHT22;66364;52.622;7.746;2023-04-24T05:48:07;9.70;99.90
77305;DHT22;66364;52.622;7.746;2023-04-24T05:50:11;9.90;99.90
77305;DHT22;66364;52.622;7.746;2023-04-24T05:52:12;9.80;99.90
77305;DHT22;66364;52.622;7.746;2023-04-24T05:54:13;10.00;99.90
77305;DHT22;66364;52.622;7.746;2023-04-24T05:56:15;10.00;99.90
77305;DHT22;66364;52.622;7.746;2023-04-24T05:58:18;9.70;99.90
77305;DHT22;66364;52.622;7.746;2023-04-24T06:00:20;10.00;99.90
77305;DHT22;66364;52.622;7.746;2023-04-24T06:02:41;10.00;99.90
77305;DHT22;66364;52.622;7.746;2023-04-24T06:04:44;10.20;99.90
77305;DHT22;66364;52.622;7.746;2023-04-24T06:06:47;10.10;99.90
77305;DHT22;66364;52.622;7.746;2023-04-24T06:08:50;10.00;99.90
77305;DHT22;66364;52.622;7.746;2023-04-24T06:10:53;10.10;99.90
77305;DHT22;66364;52.622;7.746;2023-04-24T06:12:55;10.10;99.90
77305;DHT22;66364;52.622;7.746;2023-04-24T06:14:57;10.10;99.90
77305;DHT22;66364;52.622;7.746;2023-04-24T06:17:00;10.10;99.90
77305;DHT22;66364;52.622;7.746;2023-04-24T06:19:02;10.10;99.90
77305;DHT22;66364;52.622;7.746;2023-04-24T06:21:05;10.20;99.90
77305;DHT22;66364;52.622;7.746;2023-04-24T06:23:07;10.10;99.90
77305;DHT22;66364;52.622;7.746;2023-04-24T06:25:08;10.20;99.90
77305;DHT22;66364;52.622;7.746;2023-04-24T06:27:09;10.30;99.90
77305;DHT22;66364;52.622;7.746;2023-04-24T06:29:11;10.50;99.90
77305;DHT22;66364;52.622;7.746;2023-04-24T06:31:12;10.10;99.90
77305;DHT22;66364;52.622;7.746;2023-04-24T06:33:16;10.10;99.90
77305;DHT22;66364;52.622;7.746;2023-04-24T06:35:18;10.20;99.90
77305;DHT22;66364;52.622;7.746;2023-04-24T06:37:20;10.50;99.90
77305;DHT22;66364;52.622;7.746;2023-04-24T06:39:22;10.20;99.90
77305;DHT22;66364;52.622;7.746;2023-04-24T06:41:23;10.10;99.90
77305;DHT22;66364;52.622;7.746;2023-04-24T06:43:24;10.10;99.90
77305;DHT22;66364;52.622;7.746;2023-04-24T06:45:25;10.50;99.90
77305;DHT22;66364;52.622;7.746;2023-04-24T06:47:29;10.10;99.90
77305;DHT22;66364;52.622;7.746;2023-04-24T06:49:31;10.00;99.90
77305;DHT22;66364;52.622;7.746;2023-04-24T06:51:31;10.20;99.90
77305;DHT22;66364;52.622;7.746;2023-04-24T06:53:32;10.50;99.90
77305;DHT22;66364;52.622;7.746;2023-04-24T06:55:35;10.40;99.90
77305;DHT22;66364;52.622;7.746;2023-04-24T06:57:36;10.30;99.90
77305;DHT22;66364;52.622;7.746;2023-04-24T06:59:39;10.50;99.90
77305;DHT22;66364;52.622;7.746;2023-04-24T07:01:40;10.30;99.90
77305;DHT22;66364;52.622;7.746;2023-04-24T07:03:41;10.40;99.90
77305;DHT22;66364;52.622;7.746;2023-04-24T07:05:41;10.40;99.90
77305;DHT22;66364;52.622;7.746;2023-04-24T07:07:43;10.50;99.90
77305;DHT22;66364;52.622;7.746;2023-04-24T07:09:44;10.60;99.90
77305;DHT22;66364;52.622;7.746;2023-04-24T07:11:45;10.80;99.90
77305;DHT22;66364;52.622;7.746;2023-04-24T07:13:46;10.90;99.90
77305;DHT22;66364;52.622;7.746;2023-04-24T07:15:47;10.90;99.90
77305;DHT22;66364;52.622;7.746;2023-04-24T07:17:49;11.30;99.90
77305;DHT22;66364;52.622;7.746;2023-04-24T07:19:51;10.90;99.90
77305;DHT22;66364;52.622;7.746;2023-04-24T07:21:51;11.00;99.90
77305;DHT22;66364;52.622;7.746;2023-04-24T07:23:53;11.20;99.90
77305;DHT22;66364;52.622;7.746;2023-04-24T07:25:54;11.30;99.90
77305;DHT22;66364;52.622;7.746;2023-04-24T07:27:56;11.40;99.90
77305;DHT22;66364;52.622;7.746;2023-04-24T07:29:58;11.30;99.90
77305;DHT22;66364;52.622;7.746;2023-04-24T07:31:59;11.20;99.90
77305;DHT22;66364;52.622;7.746;2023-04-24T07:34:00;11.00;99.90
77305;DHT22;66364;52.622;7.746;2023-04-24T07:36:01;10.80;99.90
77305;DHT22;66364;52.622;7.746;2023-04-24T07:38:02;10.90;99.90
77305;DHT22;66364;52.622;7.746;2023-04-24T07:40:04;11.10;99.90
77305;DHT22;66364;52.622;7.746;2023-04-24T07:42:04;10.90;99.90
77305;DHT22;66364;52.622;7.746;2023-04-24T07:44:05;10.80;99.90
77305;DHT22;66364;52.622;7.746;2023-04-24T07:46:10;10.80;99.90
77305;DHT22;66364;52.622;7.746;2023-04-24T07:48:11;10.80;99.90
77305;DHT22;66364;52.622;7.746;2023-04-24T07:50:12;10.70;99.90
77305;DHT22;66364;52.622;7.746;2023-04-24T07:52:14;10.80;99.90
77305;DHT22;66364;52.622;7.746;2023-04-24T07:54:15;10.60;99.90
77305;DHT22;66364;52.622;7.746;2023-04-24T07:56:16;10.60;99.90
77305;DHT22;66364;52.622;7.746;2023-04-24T07:58:18;10.80;99.90
77305;DHT22;66364;52.622;7.746;2023-04-24T08:00:19;10.60;99.90
77305;DHT22;66364;52.622;7.746;2023-04-24T08:02:21;10.90;99.90
77305;DHT22;66364;52.622;7.746;2023-04-24T08:04:22;10.80;99.90
77305;DHT22;66364;52.622;7.746;2023-04-24T08:06:23;10.80;99.90
77305;DHT22;66364;52.622;7.746;2023-04-24T08:08:25;10.60;99.90
77305;DHT22;66364;52.622;7.746;2023-04-24T08:10:26;10.60;99.90
77305;DHT22;66364;52.622;7.746;2023-04-24T08:12:29;10.90;99.90
77305;DHT22;66364;52.622;7.746;2023-04-24T08:14:30;10.80;99.90
77305;DHT22;66364;52.622;7.746;2023-04-24T08:16:32;10.60;99.90
77305;DHT22;66364;52.622;7.746;2023-04-24T08:18:33;10.60;99.90
77305;DHT22;66364;52.622;7.746;2023-04-24T08:20:35;10.80;99.90
77305;DHT22;66364;52.622;7.746;2023-04-24T08:22:37;10.70;99.90
77305;DHT22;66364;52.622;7.746;2023-04-24T08:24:39;10.60;99.90
77305;DHT22;66364;52.622;7.746;2023-04-24T08:26:40;10.50;99.90
77305;DHT22;66364;52.622;7.746;2023-04-24T08:28:42;10.40;99.90
77305;DHT22;66364;52.622;7.746;2023-04-24T08:30:43;10.50;99.90
77305;DHT22;66364;52.622;7.746;2023-04-24T08:32:44;10.60;99.90
77305;DHT22;66364;52.622;7.746;2023-04-24T08:34:45;10.60;99.90
77305;DHT22;66364;52.622;7.746;2023-04-24T08:36:47;10.60;99.90
77305;DHT22;66364;52.622;7.746;2023-04-24T08:38:48;10.60;99.90
77305;DHT22;66364;52.622;7.746;2023-04-24T08:40:49;10.50;99.90
77305;DHT22;66364;52.622;7.746;2023-04-24T08:42:52;10.30;99.90
77305;DHT22;66364;52.622;7.746;2023-04-24T08:44:54;10.20;99.90
77305;DHT22;66364;52.622;7.746;2023-04-24T08:46:58;10.20;99.90
77305;DHT22;66364;52.622;7.746;2023-04-24T08:49:01;9.90;99.90
77305;DHT22;66364;52.622;7.746;2023-04-24T08:51:02;10.50;99.90
77305;DHT22;66364;52.622;7.746;2023-04-24T08:53:04;10.50;99.90
77305;DHT22;66364;52.622;7.746;2023-04-24T08:55:07;10.50;99.90
77305;DHT22;66364;52.622;7.746;2023-04-24T08:57:09;10.50;99.90
77305;DHT22;66364;52.622;7.746;2023-04-24T08:59:11;10.60;99.90
77305;DHT22;66364;52.622;7.746;2023-04-24T09:01:12;10.50;99.90
77305;DHT22;66364;52.622;7.746;2023-04-24T09:03:15;10.20;99.90
77305;DHT22;66364;52.622;7.746;2023-04-24T09:05:17;10.00;99.90
77305;DHT22;66364;52.622;7.746;2023-04-24T09:07:19;10.00;99.90
77305;DHT22;66364;52.622;7.746;2023-04-24T09:09:27;10.10;99.90
77305;DHT22;66364;52.622;7.746;2023-04-24T09:11:26;10.00;99.90
77305;DHT22;66364;52.622;7.746;2023-04-24T09:13:28;10.00;99.90
77305;DHT22;66364;52.622;7.746;2023-04-24T09:15:29;9.80;99.90
77305;DHT22;66364;52.622;7.746;2023-04-24T09:17:32;9.60;99.90
77305;DHT22;66364;52.622;7.746;2023-04-24T09:19:34;9.80;99.90
77305;DHT22;66364;52.622;7.746;2023-04-24T09:21:36;9.90;99.90
77305;DHT22;66364;52.622;7.746;2023-04-24T09:23:38;9.90;99.90
77305;DHT22;66364;52.622;7.746;2023-04-24T09:25:39;10.00;99.90
77305;DHT22;66364;52.622;7.746;2023-04-24T09:27:42;10.00;99.90
77305;DHT22;66364;52.622;7.746;2023-04-24T09:30:00;10.10;99.90
77305;DHT22;66364;52.622;7.746;2023-04-24T09:32:17;10.20;99.90
77305;DHT22;66364;52.622;7.746;2023-04-24T09:34:24;10.00;99.90
77305;DHT22;66364;52.622;7.746;2023-04-24T09:36:36;9.90;99.90
77305;DHT22;66364;52.622;7.746;2023-04-24T09:38:38;10.00;99.90
77305;DHT22;66364;52.622;7.746;2023-04-24T09:40:39;10.10;99.90
77305;DHT22;66364;52.622;7.746;2023-04-24T09:42:56;9.70;99.90
77305;DHT22;66364;52.622;7.746;2023-04-24T09:44:57;9.90;99.90
77305;DHT22;66364;52.622;7.746;2023-04-24T09:47:00;9.80;99.90
77305;DHT22;66364;52.622;7.746;2023-04-24T09:49:15;9.90;99.90
77305;DHT22;66364;52.622;7.746;2023-04-24T09:51:16;10.00;99.90
77305;DHT22;66364;52.622;7.746;2023-04-24T09:53:19;9.70;99.90
77305;DHT22;66364;52.622;7.746;2023-04-24T09:55:22;10.00;99.90
77305;DHT22;66364;52.622;7.746;2023-04-24T09:57:23;9.80;99.90
77305;DHT22;66364;52.622;7.746;2023-04-24T09:59:24;9.80;99.90
77305;DHT22;66364;52.622;7.746;2023-04-24T10:01:31;9.80;99.90
77305;DHT22;66364;52.622;7.746;2023-04-24T10:03:33;9.60;99.90
77305;DHT22;66364;52.622;7.746;2023-04-24T10:05:36;9.70;99.90
77305;DHT22;66364;52.622;7.746;2023-04-24T10:07:39;9.50;99.90
77305;DHT22;66364;52.622;7.746;2023-04-24T10:09:40;9.70;99.90
77305;DHT22;66364;52.622;7.746;2023-04-24T10:11:44;9.70;99.90
77305;DHT22;66364;52.622;7.746;2023-04-24T10:13:46;9.30;99.90
77305;DHT22;66364;52.622;7.746;2023-04-24T10:15:47;9.50;99.90
77305;DHT22;66364;52.622;7.746;2023-04-24T10:17:51;9.20;99.90
77305;DHT22;66364;52.622;7.746;2023-04-24T10:19:52;9.20;99.90
77305;DHT22;66364;52.622;7.746;2023-04-24T10:21:54;9.20;99.90
77305;DHT22;66364;52.622;7.746;2023-04-24T10:23:57;9.30;99.90
77305;DHT22;66364;52.622;7.746;2023-04-24T10:26:02;9.30;99.90
77305;DHT22;66364;52.622;7.746;2023-04-24T10:28:05;9.30;99.90
77305;DHT22;66364;52.622;7.746;2023-04-24T10:30:07;9.50;99.90
77305;DHT22;66364;52.622;7.746;2023-04-24T10:32:08;9.50;99.90
77305;DHT22;66364;52.622;7.746;2023-04-24T10:34:09;9.60;99.90
77305;DHT22;66364;52.622;7.746;2023-04-24T10:36:11;9.60;99.90
77305;DHT22;66364;52.622;7.746;2023-04-24T10:38:15;9.60;99.90
77305;DHT22;66364;52.622;7.746;2023-04-24T10:40:19;9.70;99.90
77305;DHT22;66364;52.622;7.746;2023-04-24T10:42:21;9.60;99.90
77305;DHT22;66364;52.622;7.746;2023-04-24T10:44:22;9.70;99.90
77305;DHT22;66364;52.622;7.746;2023-04-24T10:46:25;9.60;99.90
77305;DHT22;66364;52.622;7.746;2023-04-24T10:48:28;9.70;99.90
77305;DHT22;66364;52.622;7.746;2023-04-24T10:52:47;9.70;99.90
77305;DHT22;66364;52.622;7.746;2023-04-24T10:54:48;9.40;99.90
77305;DHT22;66364;52.622;7.746;2023-04-24T10:56:50;9.40;99.90
77305;DHT22;66364;52.622;7.746;2023-04-24T10:58:53;9.40;99.90
77305;DHT22;66364;52.622;7.746;2023-04-24T11:00:58;9.50;99.90
77305;DHT22;66364;52.622;7.746;2023-04-24T11:03:00;9.20;99.90
77305;DHT22;66364;52.622;7.746;2023-04-24T11:05:03;9.50;99.90
77305;DHT22;66364;52.622;7.746;2023-04-24T11:07:04;9.50;99.90
77305;DHT22;66364;52.622;7.746;2023-04-24T11:09:07;9.40;99.90
77305;DHT22;66364;52.622;7.746;2023-04-24T11:11:12;9.20;99.90
77305;DHT22;66364;52.622;7.746;2023-04-24T11:13:17;9.40;99.90
77305;DHT22;66364;52.622;7.746;2023-04-24T11:15:21;9.20;99.90
77305;DHT22;66364;52.622;7.746;2023-04-24T11:17:34;9.40;99.90
77305;DHT22;66364;52.622;7.746;2023-04-24T11:19:36;9.30;99.90
77305;DHT22;66364;52.622;7.746;2023-04-24T11:24:32;9.10;99.90
77305;DHT22;66364;52.622;7.746;2023-04-24T11:26:30;8.90;99.90
77305;DHT22;66364;52.622;7.746;2023-04-24T11:28:33;9.10;99.90
77305;DHT22;66364;52.622;7.746;2023-04-24T11:30:33;8.80;99.90
77305;DHT22;66364;52.622;7.746;2023-04-24T11:32:40;8.80;99.90
77305;DHT22;66364;52.622;7.746;2023-04-24T11:34:41;8.80;99.90
77305;DHT22;66364;52.622;7.746;2023-04-24T11:36:45;9.00;99.90
77305;DHT22;66364;52.622;7.746;2023-04-24T11:38:50;9.00;99.90
77305;DHT22;66364;52.622;7.746;2023-04-24T11:40:51;9.10;99.90
77305;DHT22;66364;52.622;7.746;2023-04-24T11:42:53;8.80;99.90
77305;DHT22;66364;52.622;7.746;2023-04-24T11:44:55;9.00;99.90
77305;DHT22;66364;52.622;7.746;2023-04-24T11:46:56;8.90;99.90
77305;DHT22;66364;52.622;7.746;2023-04-24T11:48:58;9.10;99.90
77305;DHT22;66364;52.622;7.746;2023-04-24T11:51:01;9.40;99.90
77305;DHT22;66364;52.622;7.746;2023-04-24T11:53:04;9.20;99.90
77305;DHT22;66364;52.622;7.746;2023-04-24T11:57:21;9.20;99.90
77305;DHT22;66364;52.622;7.746;2023-04-24T11:59:22;9.00;99.90
77305;DHT22;66364;52.622;7.746;2023-04-24T12:01:23;9.20;99.90
77305;DHT22;66364;52.622;7.746;2023-04-24T12:03:24;9.10;99.90
77305;DHT22;66364;52.622;7.746;2023-04-24T12:05:45;9.50;99.90
77305;DHT22;66364;52.622;7.746;2023-04-24T12:07:46;9.10;99.90
77305;DHT22;66364;52.622;7.746;2023-04-24T12:09:49;9.30;99.90
77305;DHT22;66364;52.622;7.746;2023-04-24T12:14:18;9.40;99.90
77305;DHT22;66364;52.622;7.746;2023-04-24T12:16:19;9.60;99.90
77305;DHT22;66364;52.622;7.746;2023-04-24T12:18:22;9.10;99.90
77305;DHT22;66364;52.622;7.746;2023-04-24T12:20:29;9.10;99.90
77305;DHT22;66364;52.622;7.746;2023-04-24T12:24:59;9.10;99.90
77305;DHT22;66364;52.622;7.746;2023-04-24T12:27:00;9.10;99.90
77305;DHT22;66364;52.622;7.746;2023-04-24T12:29:03;9.10;99.90
77305;DHT22;66364;52.622;7.746;2023-04-24T12:31:04;9.20;99.90
77305;DHT22;66364;52.622;7.746;2023-04-24T12:33:11;8.80;99.90
77305;DHT22;66364;52.622;7.746;2023-04-24T12:35:12;8.70;99.90
77305;DHT22;66364;52.622;7.746;2023-04-24T12:37:13;9.00;99.90
77305;DHT22;66364;52.622;7.746;2023-04-24T12:39:16;8.80;99.90
77305;DHT22;66364;52.622;7.746;2023-04-24T12:41:37;8.70;99.90
77305;DHT22;66364;52.622;7.746;2023-04-24T12:43:37;8.80;99.90
77305;DHT22;66364;52.622;7.746;2023-04-24T12:45:38;8.90;99.90
77305;DHT22;66364;52.622;7.746;2023-04-24T12:47:40;9.00;99.90
77305;DHT22;66364;52.622;7.746;2023-04-24T12:49:41;8.80;99.90
77305;DHT22;66364;52.622;7.746;2023-04-24T12:51:42;9.30;99.90
77305;DHT22;66364;52.622;7.746;2023-04-24T12:53:43;9.20;99.90
77305;DHT22;66364;52.622;7.746;2023-04-24T12:55:44;9.10;99.90
77305;DHT22;66364;52.622;7.746;2023-04-24T12:57:45;9.10;99.90
77305;DHT22;66364;52.622;7.746;2023-04-24T12:59:46;9.20;99.90
77305;DHT22;66364;52.622;7.746;2023-04-24T13:01:56;9.20;99.90
77305;DHT22;66364;52.622;7.746;2023-04-24T13:03:57;8.60;99.90
77305;DHT22;66364;52.622;7.746;2023-04-24T13:05:58;9.30;99.90
77305;DHT22;66364;52.622;7.746;2023-04-24T13:07:59;9.30;99.90
77305;DHT22;66364;52.622;7.746;2023-04-24T13:10:00;9.40;99.90